Time;durP1;ratioP1;P1;durP2;ratioP2;P2;SDS_P1;SDS_P2;PMS_P1;PMS_P2;Temp;Humidity;BMP_temperature;BMP_pressure;BME280_temperature;BME280_humidity;BME280_pressure;Samples;Min_cycle;Max_cycle;Signal;HPM_P1;HPM_P2
2023/04/10 00:00:09;;;;;;;;;;;10.40;48.30;;;9.06;50.90;102267.22;12248420;19;20310;-84
2023/04/10 00:04:11;;;;;;;;;;;10.30;48.30;;;8.92;50.92;102253.69;12249286;19;19974;-84
2023/04/10 00:08:13;;;;;;;;;;;10.20;48.60;;;8.92;51.04;102258.03;12249982;19;20314;-83
2023/04/10 00:12:14;;;;;;;;;;;10.20;48.20;;;8.77;51.08;102241.84;12248920;19;19907;-83
2023/04/10 00:16:15;;;;;;;;;;;10.30;48.70;;;8.81;50.98;102256.53;12245099;19;19918;-83
2023/04/10 00:20:17;;;;;;;;;;;10.10;48.30;;;8.78;51.13;102259.22;12245633;19;19911;-83
2023/04/10 00:24:19;;;;;;;;;;;10.00;48.30;;;8.66;51.08;102250.81;12247716;19;19918;-83
2023/04/10 00:28:21;;;;;;;;;;;10.00;48.30;;;8.66;51.14;102249.06;12248661;19;19987;-83
2023/04/10 00:32:22;;;;;;;;;;;10.00;48.30;;;8.63;51.19;102246.53;12247723;19;19934;-83
2023/04/10 00:36:25;;;;;;;;;;;9.90;48.30;;;8.61;51.19;102243.09;12246051;19;19990;-84
2023/04/10 00:40:29;;;;;;;;;;;9.90;48.30;;;8.37;51.02;102198.50;12246279;19;20254;-83
2023/04/10 00:44:30;;;;;;;;;;;10.10;48.40;;;8.55;51.29;102241.50;12245364;19;19922;-83
2023/04/10 00:48:33;;;;;;;;;;;9.80;48.30;;;8.48;51.19;102226.03;12246809;19;20325;-83
2023/04/10 00:52:35;;;;;;;;;;;9.80;48.30;;;8.46;51.26;102238.25;12246744;19;20222;-83
2023/04/10 00:56:36;;;;;;;;;;;9.70;48.30;;;8.34;51.26;102223.72;12243524;19;19978;-84
2023/04/10 01:00:40;;;;;;;;;;;9.70;48.30;;;8.38;51.24;102228.81;12242893;19;19915;-83
2023/04/10 01:04:42;;;;;;;;;;;9.70;48.30;;;8.16;51.00;102197.19;12245078;19;19922;-83
2023/04/10 01:09:10;;;;;;;;;;;9.60;48.30;;;8.33;51.07;102235.03;12242673;19;19915;-83
2023/04/10 01:13:26;;;;;;;;;;;9.60;48.30;;;8.19;51.22;102224.91;12245425;19;19974;-84
2023/04/10 01:17:36;;;;;;;;;;;9.60;48.30;;;8.09;51.16;102203.41;12245892;19;19931;-84
2023/04/10 01:21:40;;;;;;;;;;;9.50;48.30;;;8.01;51.23;102207.91;12241268;19;20352;-84
2023/04/10 01:26:08;;;;;;;;;;;9.40;48.10;;;8.07;51.08;102223.41;12241725;19;20325;-84
2023/04/10 01:30:17;;;;;;;;;;;9.40;48.10;;;7.93;51.37;102207.22;12239317;19;19933;-84
2023/04/10 01:34:31;;;;;;;;;;;9.30;48.20;;;7.58;51.25;102154.16;12240569;19;20312;-84
2023/04/10 01:38:32;;;;;;;;;;;9.20;48.20;;;7.50;51.00;102156.91;12241945;19;19926;-84
2023/04/10 01:42:38;;;;;;;;;;;9.20;48.20;;;7.81;51.07;102220.50;12238787;19;19929;-84
2023/04/10 01:46:42;;;;;;;;;;;9.10;48.10;;;7.45;51.22;102179.56;12239730;19;20270;-84
2023/04/10 01:50:45;;;;;;;;;;;9.00;48.00;;;7.58;51.20;102215.72;12243131;19;20337;-84
2023/04/10 01:54:47;;;;;;;;;;;9.00;48.10;;;7.60;51.27;102220.00;12246828;19;19914;-84
2023/04/10 01:58:55;;;;;;;;;;;9.10;48.20;;;7.52;51.31;102208.88;12252365;19;19919;-84
2023/04/10 02:02:57;;;;;;;;;;;8.90;48.20;;;7.07;51.21;102142.16;12255773;19;19975;-84
2023/04/10 02:07:04;;;;;;;;;;;8.80;48.20;;;7.32;51.33;102194.53;12253002;19;19923;-84
2023/04/10 02:11:20;;;;;;;;;;;8.80;48.20;;;7.31;51.29;102184.13;12253496;19;19918;-84
2023/04/10 02:15:27;;;;;;;;;;;8.80;48.20;;;7.34;51.26;102201.41;12252168;19;20321;-83
2023/04/10 02:19:30;;;;;;;;;;;8.70;48.20;;;7.27;51.39;102191.16;12253612;19;19915;-84
2023/04/10 02:23:31;;;;;;;;;;;8.70;48.30;;;7.39;51.41;102223.00;12253496;19;20250;-84
2023/04/10 02:27:35;;;;;;;;;;;8.80;48.30;;;7.26;51.10;102199.84;12254255;19;20365;-84
2023/04/10 02:31:37;;;;;;;;;;;8.60;48.20;;;7.21;51.32;102198.16;12253721;19;20321;-83
2023/04/10 02:35:38;;;;;;;;;;;8.60;48.20;;;7.14;51.17;102199.19;12249106;19;20321;-84
2023/04/10 02:39:40;;;;;;;;;;;8.60;48.20;;;6.91;51.38;102169.25;12250809;19;19925;-84
2023/04/10 02:43:43;;;;;;;;;;;8.50;48.10;;;7.04;51.25;102209.72;12251576;19;19926;-84
2023/04/10 02:47:44;;;;;;;;;;;8.50;48.10;;;7.02;51.38;102213.22;12254577;19;19919;-84
2023/04/10 02:51:46;;;;;;;;;;;8.40;48.10;;;7.03;51.26;102217.53;12253007;19;19919;-84
2023/04/10 02:55:48;;;;;;;;;;;8.30;48.10;;;6.85;51.42;102209.16;12251819;19;19923;-84
2023/04/10 02:59:50;;;;;;;;;;;8.30;48.30;;;6.91;51.39;102239.34;12250977;19;19929;-84
2023/04/10 03:03:53;;;;;;;;;;;8.30;48.20;;;6.82;51.23;102237.75;12250037;19;19917;-84
2023/04/10 03:08:01;;;;;;;;;;;8.20;48.10;;;6.60;51.27;102211.25;12251063;19;19927;-84
2023/04/10 03:12:03;;;;;;;;;;;8.10;48.00;;;6.62;51.12;102225.09;12250612;19;19952;-84
2023/04/10 03:16:05;;;;;;;;;;;8.10;48.00;;;6.59;51.20;102237.25;12248133;19;19907;-84
2023/04/10 03:20:07;;;;;;;;;;;8.00;48.30;;;6.47;51.33;102243.47;12247146;19;19971;-84
2023/04/10 03:24:09;;;;;;;;;;;7.90;48.00;;;6.44;51.37;102251.28;12249043;19;19923;-84
2023/04/10 03:28:10;;;;;;;;;;;7.80;48.00;;;6.26;51.19;102225.59;12249101;19;20011;-84
2023/04/10 03:32:12;;;;;;;;;;;7.80;48.40;;;6.03;51.15;102190.44;12250959;19;19926;-84
2023/04/10 03:36:14;;;;;;;;;;;7.70;48.00;;;6.24;51.38;102229.94;12247119;19;20340;-84
2023/04/10 03:40:15;;;;;;;;;;;7.60;48.00;;;5.93;51.48;102187.09;12248251;19;19915;-84
2023/04/10 03:44:18;;;;;;;;;;;7.60;48.10;;;6.06;51.32;102210.28;12246778;19;19915;-84
2023/04/10 03:48:20;;;;;;;;;;;7.70;48.20;;;6.13;51.52;102230.06;12247860;19;19911;-84
2023/04/10 03:52:21;;;;;;;;;;;7.50;48.20;;;6.05;51.55;102227.59;12249630;19;19939;-84
2023/04/10 03:56:23;;;;;;;;;;;7.50;48.20;;;6.05;51.48;102214.63;12246652;19;19906;-84
2023/04/10 04:00:26;;;;;;;;;;;7.80;48.50;;;6.02;51.48;102213.78;12247540;19;19914;-84
2023/04/10 04:04:43;;;;;;;;;;;7.50;48.30;;;5.94;51.48;102206.09;12247586;19;19919;-84
2023/04/10 04:09:04;;;;;;;;;;;7.40;48.20;;;5.97;51.40;102229.41;12250014;19;20334;-84
2023/04/10 04:13:24;;;;;;;;;;;7.40;48.20;;;5.92;51.50;102220.78;12248689;19;19924;-84
2023/04/10 04:17:40;;;;;;;;;;;7.30;48.20;;;5.83;51.58;102213.09;12246222;19;19922;-83
2023/04/10 04:21:42;;;;;;;;;;;7.30;48.20;;;5.86;51.41;102226.03;12246382;19;19907;-84
2023/04/10 04:25:56;;;;;;;;;;;7.30;48.20;;;5.73;51.48;102207.19;12247289;19;19923;-84
2023/04/10 04:30:10;;;;;;;;;;;7.30;48.20;;;5.83;51.44;102239.03;12246082;19;19919;-83
2023/04/10 04:34:41;;;;;;;;;;;7.20;48.20;;;5.68;51.44;102207.22;12245392;19;20545;-84
2023/04/10 04:38:55;;;;;;;;;;;7.20;48.30;;;5.80;51.53;102229.56;12246943;19;20355;-84
2023/04/10 04:43:12;;;;;;;;;;;7.20;48.30;;;5.71;51.61;102211.53;12246062;19;19937;-84
2023/04/10 04:47:32;;;;;;;;;;;7.20;48.40;;;5.82;51.70;102237.31;12245354;19;20345;-84
2023/04/10 04:51:40;;;;;;;;;;;7.20;48.40;;;5.77;51.75;102239.97;12246221;19;19915;-84
2023/04/10 04:56:01;;;;;;;;;;;7.20;48.40;;;5.64;51.68;102222.81;12245033;19;19922;-84
2023/04/10 05:00:22;;;;;;;;;;;7.20;48.30;;;5.59;51.74;102228.06;12243353;19;20306;-84
2023/04/10 05:04:36;;;;;;;;;;;7.20;48.30;;;5.53;51.72;102218.59;12246004;19;19935;-84
2023/04/10 05:08:58;;;;;;;;;;;7.10;48.30;;;5.26;51.58;102186.06;12244492;19;19915;-84
2023/04/10 05:13:19;;;;;;;;;;;7.30;48.30;;;5.57;51.56;102242.78;12247394;19;20249;-84
2023/04/10 05:17:41;;;;;;;;;;;7.10;48.20;;;5.50;51.51;102247.13;12243728;19;19981;-84
2023/04/10 05:22:08;;;;;;;;;;;7.00;48.20;;;5.42;51.54;102238.56;12244344;19;19939;-84
2023/04/10 05:26:41;;;;;;;;;;;7.20;48.30;;;5.39;51.83;102243.78;12242931;19;19921;-84
2023/04/10 05:31:15;;;;;;;;;;;6.90;48.20;;;5.37;51.67;102244.69;12258270;19;19932;-84
2023/04/10 05:35:26;;;;;;;;;;;6.90;48.40;;;5.31;51.79;102236.09;12256792;19;20279;-84
2023/04/10 05:39:35;;;;;;;;;;;6.90;48.50;;;5.44;51.78;102254.13;12259965;19;19922;-85
2023/04/10 05:43:58;;;;;;;;;;;6.90;49.00;;;5.50;51.99;102251.47;12256727;19;19930;-84
2023/04/10 05:48:18;;;;;;;;;;;6.90;48.70;;;5.39;51.89;102235.16;12258387;19;20330;-85
2023/04/10 05:52:40;;;;;;;;;;;7.00;48.80;;;5.39;51.92;102223.06;12257089;19;19943;-85
2023/04/10 05:57:05;;;;;;;;;;;7.00;48.80;;;5.52;52.00;102239.34;12259194;19;19940;-85
2023/04/10 06:01:32;;;;;;;;;;;7.00;48.80;;;5.53;52.20;102233.28;12254779;19;19918;-86
2023/04/10 06:05:36;;;;;;;;;;;7.10;49.00;;;5.59;52.25;102220.28;12254727;19;19927;-84
2023/04/10 06:09:40;;;;;;;;;;;7.20;49.10;;;5.68;52.31;102224.53;12257957;19;19982;-84
2023/04/10 06:13:44;;;;;;;;;;;7.20;49.10;;;5.79;52.24;102232.19;12256635;19;19932;-84
2023/04/10 06:17:46;;;;;;;;;;;7.30;49.30;;;5.84;52.26;102220.03;12258298;19;19936;-84
2023/04/10 06:21:48;;;;;;;;;;;7.40;49.70;;;6.01;52.42;102235.41;12253856;19;19915;-84
2023/04/10 06:25:50;;;;;;;;;;;7.50;49.80;;;6.09;52.57;102236.19;12251926;19;19934;-86
2023/04/10 06:29:52;;;;;;;;;;;7.70;50.00;;;6.33;52.42;102243.66;12255875;19;19910;-83
2023/04/10 06:33:57;;;;;;;;;;;7.80;50.40;;;6.41;52.66;102233.19;12255155;19;19922;-84
2023/04/10 06:37:58;;;;;;;;;;;7.90;50.40;;;6.61;52.81;102245.84;12257097;19;20256;-84
2023/04/10 06:42:02;;;;;;;;;;;8.20;50.40;;;6.60;52.61;102203.47;12251419;19;19931;-85
2023/04/10 06:46:16;;;;;;;;;;;8.30;50.80;;;6.89;52.75;102220.38;12247983;19;19914;-83
2023/04/10 06:50:18;;;;;;;;;;;8.50;51.20;;;7.00;52.82;102207.22;12248775;19;19943;-84
2023/04/10 06:54:19;;;;;;;;;;;8.70;51.00;;;7.29;52.93;102232.66;12250379;19;19982;-83
2023/04/10 06:58:21;;;;;;;;;;;8.90;51.10;;;7.31;52.75;102202.31;12250864;19;20280;-83
2023/04/10 07:02:22;;;;;;;;;;;9.00;51.20;;;7.58;52.74;102207.91;12253368;19;20003;-83
2023/04/10 07:06:25;;;;;;;;;;;9.20;51.10;;;7.43;52.82;102159.69;12249348;19;19922;-85
2023/04/10 07:10:26;;;;;;;;;;;9.30;51.20;;;7.89;52.83;102209.03;12251776;19;20261;-85
2023/04/10 07:14:28;;;;;;;;;;;9.50;51.30;;;7.83;52.81;102170.16;12250686;19;19922;-85
2023/04/10 07:18:29;;;;;;;;;;;9.60;51.90;;;8.13;52.98;102197.28;12250749;19;20286;-83
2023/04/10 07:22:31;;;;;;;;;;;9.80;52.20;;;8.41;52.88;102209.72;12248534;19;19943;-83
2023/04/10 07:26:33;;;;;;;;;;;10.00;51.90;;;8.61;52.91;102215.34;12248282;19;20580;-84
2023/04/10 07:30:34;;;;;;;;;;;10.20;52.10;;;8.80;53.08;102220.97;12251347;19;19911;-83
2023/04/10 07:34:35;;;;;;;;;;;10.30;52.00;;;8.93;52.94;102199.81;12249691;19;19926;-83
2023/04/10 07:38:37;;;;;;;;;;;10.60;52.70;;;9.08;53.10;102196.84;12235763;19;19910;-83
2023/04/10 07:42:38;;;;;;;;;;;10.70;52.80;;;9.41;53.33;102218.56;12245318;19;19943;-83
2023/04/10 07:46:40;;;;;;;;;;;11.00;53.50;;;9.55;53.19;102197.34;12244550;19;20404;-84
2023/04/10 07:50:41;;;;;;;;;;;11.20;53.30;;;9.89;53.48;102214.69;12247655;19;19932;-84
2023/04/10 07:54:43;;;;;;;;;;;11.40;54.60;;;10.04;53.46;102185.50;12240508;19;19926;-84
2023/04/10 07:58:45;;;;;;;;;;;11.70;54.00;;;10.30;53.37;102186.53;12246047;19;19945;-84
2023/04/10 08:02:46;;;;;;;;;;;11.90;53.20;;;10.60;53.50;102190.78;12243820;19;20262;-84
2023/04/10 08:06:48;;;;;;;;;;;12.20;53.30;;;10.86;53.58;102181.28;12248739;19;19914;-84
2023/04/10 08:10:50;;;;;;;;;;;12.50;54.20;;;11.14;53.61;102191.66;12249555;19;19927;-84
2023/04/10 08:14:52;;;;;;;;;;;12.70;54.60;;;11.37;53.63;102172.56;12247999;19;20218;-84
2023/04/10 08:18:56;;;;;;;;;;;13.00;53.60;;;11.51;53.69;102157.22;12240311;19;19934;-85
2023/04/10 08:22:58;;;;;;;;;;;13.30;53.20;;;11.89;53.78;102170.69;12248803;19;19947;-84
2023/04/10 08:27:03;;;;;;;;;;;13.50;53.00;;;11.85;53.68;102134.16;12242860;19;20420;-84
2023/04/10 08:31:04;;;;;;;;;;;13.80;52.60;;;12.32;53.95;102176.06;12247868;19;19919;-85
2023/04/10 08:35:06;;;;;;;;;;;14.00;52.50;;;12.48;53.83;102173.69;12247036;19;20294;-85
2023/04/10 08:39:07;;;;;;;;;;;14.20;53.50;;;12.72;53.74;102177.06;12248387;19;19925;-85
2023/04/10 08:43:09;;;;;;;;;;;14.40;52.70;;;12.88;53.67;102174.66;12248438;19;19960;-85
2023/04/10 08:47:12;;;;;;;;;;;14.60;52.60;;;13.01;53.82;102168.84;12250134;19;19925;-84
2023/04/10 08:51:25;;;;;;;;;;;14.80;52.10;;;13.21;53.68;102167.16;12245418;19;19925;-84
2023/04/10 08:55:26;;;;;;;;;;;14.90;52.00;;;13.35;53.72;102171.84;12246132;19;19914;-85
2023/04/10 08:59:29;;;;;;;;;;;15.10;52.00;;;13.58;53.85;102173.44;12243948;19;19915;-84
2023/04/10 09:03:31;;;;;;;;;;;15.30;51.90;;;13.76;53.81;102167.34;12250836;19;19918;-85
2023/04/10 09:07:33;;;;;;;;;;;15.50;51.80;;;13.69;53.81;102124.78;12258167;19;20238;-85
2023/04/10 09:11:55;;;;;;;;;;;15.70;51.80;;;14.17;53.81;102162.81;12257647;19;19919;-85
2023/04/10 09:15:58;;;;;;;;;;;15.80;51.50;;;14.27;53.71;102152.72;12254644;19;20325;-85
2023/04/10 09:19:59;;;;;;;;;;;16.10;51.20;;;14.41;53.78;102136.28;12255480;19;19914;-84
2023/04/10 09:24:01;;;;;;;;;;;16.20;51.10;;;14.57;53.81;102120.66;12255573;19;19914;-85
2023/04/10 09:28:08;;;;;;;;;;;16.30;51.10;;;14.55;53.75;102083.91;12258474;19;19923;-85
2023/04/10 09:32:13;;;;;;;;;;;16.50;51.10;;;14.96;53.89;102104.66;12255522;19;19918;-85
2023/04/10 09:36:14;;;;;;;;;;;16.70;51.10;;;15.00;53.77;102071.13;12251321;19;20322;-85
2023/04/10 09:40:21;;;;;;;;;;;16.90;51.20;;;15.39;53.55;102110.28;12252596;19;20314;-85
2023/04/10 09:44:30;;;;;;;;;;;17.10;51.00;;;15.59;53.72;102108.38;12255748;19;19918;-85
2023/04/10 09:48:32;;;;;;;;;;;17.20;50.60;;;15.56;53.49;102077.78;12254579;19;20305;-84
2023/04/10 09:52:34;;;;;;;;;;;17.40;50.50;;;15.82;53.69;102092.16;12255238;19;19930;-84
2023/04/10 09:56:37;;;;;;;;;;;17.50;50.40;;;15.73;53.48;102050.53;12249893;19;19933;-86
2023/04/10 10:00:43;;;;;;;;;;;17.60;50.50;;;16.10;53.38;102082.75;12252713;19;20299;-85
2023/04/10 10:04:46;;;;;;;;;;;17.70;50.10;;;15.97;53.33;102040.41;12253204;19;19919;-85
2023/04/10 10:08:47;;;;;;;;;;;17.90;49.40;;;16.29;53.22;102067.56;12255781;19;19922;-85
2023/04/10 10:12:56;;;;;;;;;;;17.90;49.90;;;16.38;53.42;102064.38;12253659;19;19922;-85
2023/04/10 10:17:00;;;;;;;;;;;18.00;50.20;;;16.50;53.35;102059.31;12251536;19;19925;-85
2023/04/10 10:21:03;;;;;;;;;;;18.10;50.10;;;16.43;52.97;102021.09;12250056;19;19919;-85
2023/04/10 10:25:06;;;;;;;;;;;18.20;49.70;;;16.68;53.10;102042.41;12252151;19;19919;-86
2023/04/10 10:29:09;;;;;;;;;;;18.30;48.40;;;16.74;53.31;102047.34;12255660;19;20258;-85
2023/04/10 10:33:12;;;;;;;;;;;18.30;49.40;;;16.89;53.13;102050.88;12252828;19;19964;-85
2023/04/10 10:37:15;;;;;;;;;;;18.50;49.70;;;16.94;52.77;102048.78;12253796;19;19931;-86
2023/04/10 10:41:25;;;;;;;;;;;18.60;49.00;;;16.95;52.73;102037.28;12250873;19;19911;-85
2023/04/10 10:45:51;;;;;;;;;;;18.60;49.00;;;16.95;52.59;102007.41;12248003;19;19922;-86
2023/04/10 10:50:02;;;;;;;;;;;18.70;48.90;;;17.06;52.53;102014.69;12252693;19;19915;-86
2023/04/10 10:54:25;;;;;;;;;;;18.70;48.80;;;17.13;52.64;102011.56;12248398;19;19970;-86
2023/04/10 10:58:46;;;;;;;;;;;18.70;49.20;;;17.25;52.58;102010.81;12244437;19;19993;-85
2023/04/10 11:03:06;;;;;;;;;;;18.80;47.80;;;17.28;52.39;102006.25;12251375;19;19923;-85
2023/04/10 11:07:07;;;;;;;;;;;18.80;48.60;;;17.29;52.47;101990.34;12251494;19;19929;-85
2023/04/10 11:11:09;;;;;;;;;;;18.80;46.90;;;17.32;52.44;101982.22;12250234;19;19938;-86
2023/04/10 11:15:11;;;;;;;;;;;18.90;46.80;;;17.38;52.07;101979.19;12249456;19;19925;-84
2023/04/10 11:19:16;;;;;;;;;;;18.90;47.60;;;17.50;51.95;101985.47;12248739;19;19915;-87
2023/04/10 11:23:19;;;;;;;;;;;19.00;47.50;;;17.60;52.28;101968.06;12248747;19;19957;-84
2023/04/10 11:27:40;;;;;;;;;;;19.00;48.00;;;17.70;52.13;101984.19;12251051;19;19945;-86
2023/04/10 11:32:05;;;;;;;;;;;19.10;48.50;;;17.81;51.98;101975.59;12249049;19;19915;-86
2023/04/10 11:36:06;;;;;;;;;;;19.20;48.20;;;17.78;52.04;101938.75;12246038;19;19928;-84
2023/04/10 11:40:08;;;;;;;;;;;19.30;48.30;;;17.96;51.93;101953.44;12249072;19;19919;-86
2023/04/10 11:44:12;;;;;;;;;;;19.40;47.90;;;18.00;52.07;101933.75;12249880;19;19915;-86
2023/04/10 11:48:15;;;;;;;;;;;19.50;47.60;;;18.13;51.89;101941.72;12251915;19;19920;-86
2023/04/10 11:52:24;;;;;;;;;;;19.60;48.20;;;18.24;51.97;101936.53;12249876;19;19915;-86
2023/04/10 11:56:25;;;;;;;;;;;19.60;46.50;;;18.29;51.54;101938.88;12248246;19;19942;-86
2023/04/10 12:00:26;;;;;;;;;;;19.70;47.00;;;18.29;51.62;101917.72;12242680;19;19914;-86
2023/04/10 12:04:28;;;;;;;;;;;19.70;47.50;;;18.41;51.85;101922.16;12247113;19;19914;-86
2023/04/10 12:08:34;;;;;;;;;;;19.80;47.60;;;18.47;51.59;101913.81;12249518;19;19944;-87
2023/04/10 12:12:36;;;;;;;;;;;19.90;47.30;;;18.50;51.38;101900.38;12251293;19;20377;-87
2023/04/10 12:16:38;;;;;;;;;;;19.90;45.80;;;18.59;51.60;101890.94;12246778;19;19968;-87
2023/04/10 12:20:39;;;;;;;;;;;20.00;46.80;;;18.60;51.53;101881.19;12241597;19;19961;-89
2023/04/10 12:24:48;;;;;;;;;;;20.00;47.40;;;18.65;51.36;101866.69;12246536;19;19911;-88
2023/04/10 12:28:55;;;;;;;;;;;20.10;47.40;;;18.76;51.12;101885.31;12249749;19;19919;-88
2023/04/10 12:32:57;;;;;;;;;;;20.20;47.40;;;18.69;51.04;101862.03;12248708;19;20621;-88
2023/04/10 12:36:58;;;;;;;;;;;20.20;47.20;;;18.84;51.12;101871.53;12246044;19;20004;-87
2023/04/10 12:41:00;;;;;;;;;;;20.20;46.70;;;18.89;51.05;101863.28;12243688;19;19919;-88
2023/04/10 12:45:02;;;;;;;;;;;20.20;47.30;;;18.82;50.80;101856.72;12243568;19;19974;-87
2023/04/10 12:49:19;;;;;;;;;;;20.30;47.10;;;18.82;50.98;101846.97;12251386;19;19926;-87
2023/04/10 12:53:20;;;;;;;;;;;20.30;46.80;;;18.80;50.74;101838.31;12244873;19;19922;-88
2023/04/10 12:57:26;;;;;;;;;;;20.30;47.10;;;18.74;50.97;101821.09;12253584;19;19923;-88
2023/04/10 13:01:28;;;;;;;;;;;20.20;46.50;;;18.88;50.74;101833.31;12243198;19;19982;-88
2023/04/10 13:05:29;;;;;;;;;;;20.30;46.00;;;18.78;50.81;101796.06;12247373;19;19914;-89
2023/04/10 13:09:30;;;;;;;;;;;20.30;46.90;;;18.92;50.63;101816.25;12247350;19;20374;-88
2023/04/10 13:13:32;;;;;;;;;;;20.30;46.50;;;18.93;50.73;101790.59;12249029;19;19922;-87
2023/04/10 13:17:33;;;;;;;;;;;20.40;47.00;;;19.07;50.45;101792.25;12250442;19;19915;-88
2023/04/10 13:21:34;;;;;;;;;;;20.40;44.50;;;18.96;50.59;101759.47;12245971;19;19978;-87
2023/04/10 13:25:41;;;;;;;;;;;20.40;45.70;;;18.97;50.71;101761.16;12247632;19;20325;-88
2023/04/10 13:29:43;;;;;;;;;;;20.40;46.40;;;19.07;50.29;101776.38;12250811;19;19926;-88
2023/04/10 13:33:46;;;;;;;;;;;20.40;45.30;;;18.99;50.43;101758.41;12249173;19;19915;-88
2023/04/10 13:37:51;;;;;;;;;;;20.40;45.80;;;18.97;50.27;101745.28;12249063;19;19914;-88
2023/04/10 13:41:53;;;;;;;;;;;20.30;45.90;;;19.01;50.25;101751.22;12246267;19;19919;-87
2023/04/10 13:45:54;;;;;;;;;;;20.30;45.70;;;19.00;50.16;101739.75;12244001;19;19919;-88
2023/04/10 13:49:56;;;;;;;;;;;20.30;43.50;;;18.89;50.33;101710.59;12255030;19;19923;-87
2023/04/10 13:53:58;;;;;;;;;;;20.30;44.80;;;19.02;49.92;101710.53;12258639;19;19918;-87
2023/04/10 13:57:59;;;;;;;;;;;20.30;45.30;;;19.08;50.22;101717.16;12262648;19;19978;-87
2023/04/10 14:02:00;;;;;;;;;;;20.30;44.20;;;19.18;50.05;101721.66;12255342;19;19930;-87
2023/04/10 14:06:01;;;;;;;;;;;20.40;46.20;;;19.19;50.02;101714.53;12258249;19;19931;-87
2023/04/10 14:10:03;;;;;;;;;;;20.40;45.70;;;19.21;49.97;101702.03;12261796;19;20369;-87
2023/04/10 14:14:05;;;;;;;;;;;20.40;45.10;;;19.17;50.14;101682.91;12260259;19;19918;-87
2023/04/10 14:18:07;;;;;;;;;;;20.50;46.00;;;19.29;49.80;101701.47;12262275;19;19918;-87
2023/04/10 14:22:08;;;;;;;;;;;20.50;45.90;;;19.29;49.97;101702.28;12256135;19;19922;-88
2023/04/10 14:26:10;;;;;;;;;;;20.50;45.70;;;19.27;49.95;101695.44;12258128;19;19925;-88
2023/04/10 14:30:12;;;;;;;;;;;20.50;46.00;;;19.19;49.89;101685.41;12261581;19;19947;-87
2023/04/10 14:34:14;;;;;;;;;;;20.40;43.80;;;19.14;49.70;101671.69;12259064;19;20332;-86
2023/04/10 14:38:15;;;;;;;;;;;20.40;45.30;;;19.05;49.61;101651.22;12257198;19;19953;-86
2023/04/10 14:42:16;;;;;;;;;;;20.30;43.60;;;19.04;49.51;101646.84;12253256;19;19919;-87
2023/04/10 14:46:18;;;;;;;;;;;20.40;44.70;;;19.18;49.49;101658.09;12253336;19;19922;-87
2023/04/10 14:50:19;;;;;;;;;;;20.30;43.70;;;19.04;49.52;101617.72;12256123;19;19978;-87
2023/04/10 14:54:22;;;;;;;;;;;20.40;44.80;;;19.31;49.41;101644.75;12256537;19;19915;-88
2023/04/10 14:58:24;;;;;;;;;;;20.50;44.20;;;19.23;49.48;101620.66;12254820;19;19939;-86
2023/04/10 15:02:26;;;;;;;;;;;20.50;42.40;;;19.26;49.30;101631.03;12251091;19;20334;-86
2023/04/10 15:06:28;;;;;;;;;;;20.50;43.00;;;19.29;49.01;101633.44;12250617;19;19978;-85
2023/04/10 15:14:32;;;;;;;;;;;20.40;44.80;;;19.27;48.95;101616.81;12243145;19;19947;-85
2023/04/10 15:18:34;;;;;;;;;;;20.50;45.00;;;19.22;49.14;101600.44;12250542;19;19990;-86
2023/04/10 15:22:36;;;;;;;;;;;20.40;45.00;;;19.13;49.29;101587.91;12248567;19;20022;-85
2023/04/10 15:26:44;;;;;;;;;;;20.40;44.60;;;19.27;48.98;101597.44;12254385;19;20000;-85
2023/04/10 15:30:47;;;;;;;;;;;20.40;45.20;;;19.22;48.93;101587.19;12250041;19;19918;-85
2023/04/10 15:34:48;;;;;;;;;;;20.40;44.40;;;19.22;49.03;101574.78;12251576;19;19911;-86
2023/04/10 15:38:50;;;;;;;;;;;20.40;43.20;;;19.18;48.70;101576.00;12251186;19;20239;-85
2023/04/10 15:42:52;;;;;;;;;;;20.40;44.00;;;19.19;48.76;101566.25;12250997;19;19926;-85
2023/04/10 15:46:53;;;;;;;;;;;20.40;39.90;;;19.13;48.83;101546.38;12251498;19;20002;-85
2023/04/10 15:50:55;;;;;;;;;;;20.30;40.50;;;19.23;48.51;101551.81;12250454;19;19915;-85
2023/04/10 15:54:57;;;;;;;;;;;20.30;43.10;;;19.11;48.52;101523.66;12249216;19;19919;-85
2023/04/10 15:58:58;;;;;;;;;;;20.40;43.50;;;19.13;48.82;101524.38;12247141;19;19923;-85
2023/04/10 16:03:00;;;;;;;;;;;20.30;43.10;;;18.91;48.50;101478.41;12247662;19;19927;-85
2023/04/10 16:07:01;;;;;;;;;;;20.40;44.20;;;19.25;48.65;101520.75;12249793;19;19927;-86
2023/04/10 16:11:03;;;;;;;;;;;20.30;44.60;;;19.27;48.58;101517.97;12248264;19;19955;-85
2023/04/10 16:15:07;;;;;;;;;;;20.40;42.10;;;19.15;48.43;101488.03;12244145;19;19914;-85
2023/04/10 16:19:08;;;;;;;;;;;20.40;42.90;;;19.23;48.56;101496.22;12252505;19;19940;-87
2023/04/10 16:23:10;;;;;;;;;;;20.40;42.50;;;18.97;48.19;101450.59;12245391;19;19927;-86
2023/04/10 16:27:11;;;;;;;;;;;20.40;41.90;;;19.13;48.08;101479.34;12248684;19;19919;-87
2023/04/10 16:31:15;;;;;;;;;;;20.30;42.20;;;19.20;48.31;101476.09;12245428;19;19915;-86
2023/04/10 16:35:17;;;;;;;;;;;20.40;43.70;;;19.13;48.21;101451.06;12249243;19;20541;-85
2023/04/10 16:39:19;;;;;;;;;;;20.30;41.70;;;19.14;47.84;101457.19;12246782;19;20333;-85
2023/04/10 16:43:20;;;;;;;;;;;20.20;42.70;;;19.09;48.06;101449.66;12247392;19;19915;-85
2023/04/10 16:47:21;;;;;;;;;;;20.20;41.60;;;19.10;47.94;101445.19;12251215;19;19926;-85
2023/04/10 16:51:23;;;;;;;;;;;20.20;42.20;;;18.94;48.01;101430.50;12244346;19;19919;-85
2023/04/10 16:55:24;;;;;;;;;;;20.20;42.20;;;19.02;48.02;101438.69;12246175;19;20334;-86
2023/04/10 16:59:26;;;;;;;;;;;20.20;42.90;;;18.97;47.81;101430.25;12247347;19;19915;-85
2023/04/10 17:03:27;;;;;;;;;;;20.10;43.30;;;18.89;47.69;101416.81;12244129;19;19911;-85
2023/04/10 17:07:29;;;;;;;;;;;20.10;42.50;;;18.80;47.72;101396.38;12245514;19;19925;-85
2023/04/10 17:11:30;;;;;;;;;;;20.10;43.60;;;18.94;47.77;101412.00;12245221;19;19919;-85
2023/04/10 17:15:31;;;;;;;;;;;20.10;43.80;;;18.93;47.68;101412.97;12243861;19;19919;-85
2023/04/10 17:19:33;;;;;;;;;;;20.00;44.00;;;18.95;47.51;101415.47;12246435;19;19922;-86
2023/04/10 17:23:35;;;;;;;;;;;20.00;44.20;;;18.79;47.87;101390.25;12245213;19;19923;-85
2023/04/10 17:27:36;;;;;;;;;;;20.00;44.00;;;18.83;47.45;101392.66;12262261;19;20294;-85
2023/04/10 17:31:38;;;;;;;;;;;20.00;44.30;;;18.79;47.73;101397.31;12258851;19;19978;-85
2023/04/10 17:35:39;;;;;;;;;;;19.90;44.20;;;18.72;47.50;101386.34;12260840;19;19918;-85
2023/04/10 17:39:40;;;;;;;;;;;19.90;44.40;;;18.64;47.78;101390.56;12258451;19;19918;-86
2023/04/10 17:43:42;;;;;;;;;;;19.70;44.40;;;18.55;47.62;101379.75;12250808;19;19919;-85
2023/04/10 17:47:44;;;;;;;;;;;19.70;44.40;;;18.37;47.33;101357.38;12258775;19;19915;-85
2023/04/10 17:51:46;;;;;;;;;;;19.60;44.50;;;18.35;47.56;101364.59;12255503;19;19914;-85
2023/04/10 17:55:47;;;;;;;;;;;19.50;44.20;;;18.20;47.55;101352.56;12259288;19;19963;-85
2023/04/10 17:59:49;;;;;;;;;;;19.40;44.10;;;18.01;47.44;101335.50;12247318;19;19911;-85
2023/04/10 18:03:50;;;;;;;;;;;19.30;44.20;;;18.01;47.25;101346.06;12247398;19;19915;-85
2023/04/10 18:07:52;;;;;;;;;;;19.20;44.10;;;17.99;47.19;101358.53;12245774;19;20494;-85
2023/04/10 18:11:53;;;;;;;;;;;19.10;44.30;;;17.83;47.49;101342.19;12251403;19;19948;-84
2023/04/10 18:15:54;;;;;;;;;;;19.00;44.20;;;17.70;47.23;101329.84;12253911;19;20344;-85
2023/04/10 18:19:56;;;;;;;;;;;18.90;44.10;;;17.70;47.18;101350.16;12251896;19;19956;-84
2023/04/10 18:23:57;;;;;;;;;;;18.80;44.50;;;17.56;47.27;101334.50;12252082;19;19911;-84
2023/04/10 18:27:59;;;;;;;;;;;18.70;44.10;;;17.50;47.24;101335.81;12255518;19;19953;-84
2023/04/10 18:32:00;;;;;;;;;;;18.60;44.40;;;17.22;47.39;101307.94;12252395;19;19998;-85